Flight Track Log - Related Links

Times and Time Zones

All times are in EDT time to prevent confusion due to time zone crossing. See the N500HY flight status page for this flight to view local times or setup timezone preferences in your user account.

Time Position Orientation Groundspeed Altitude Reporting Facility
EDT Latitude Longitude Course Direction KTS MPH feet Rate Location/Type
Mon 06:13:00 PM 44.4066 -105.9457 281° West  Level FlightAware Approximate
Mon 06:14:00 PM 44.4264 -106.0847 281° West  Level FlightAware Approximate
Mon 06:15:00 PM 44.4333 -106.2256 270° West  Level FlightAware Approximate
Mon 06:16:00 PM 44.4564 -106.3635 284° West  Level FlightAware Approximate
Mon 06:17:00 PM 44.4806 -106.5013 284° West  Level FlightAware Approximate
Mon 06:18:00 PM 44.4930 -106.6420 276° West  Level FlightAware Approximate
Mon 06:19:00 PM 44.5092 -106.7818 285° West  Level FlightAware Approximate
Mon 06:19:15 PM 44.4389 -105.8508 281° West 282 325 13,800  Level Salt Lake Center
Mon 06:20:00 PM 44.5349 -106.9192 285° West  Level FlightAware Approximate
Mon 06:20:20 PM 44.4544 -105.9750 280° West 287 330 15,900  Level Denver Center
Mon 06:21:00 PM 44.5582 -107.0574 281° West  Level FlightAware Approximate
Mon 06:21:22 PM 44.4703 -106.0881 281° West 296 341 17,600  Level Denver Center
Mon 06:22:00 PM 44.5735 -107.1978 277° West  Level FlightAware Approximate
Mon 06:22:36 PM 44.4900 -106.2217 282° West 306 352 19,500  Level Denver Center
Mon 06:23:00 PM 44.5864 -107.3388 281° West  Level FlightAware Approximate
Mon 06:23:21 PM 44.5056 -106.3381 281° West 310 357 21,300  Level Salt Lake Center
Mon 06:24:22 PM 44.5211 -106.4525 281° West 311 358 22,700 1,366 Climbing Salt Lake Center
Mon 06:25:24 PM 44.5400 -106.5906 281° West 317 365 24,100 1,161 Climbing Salt Lake Center
Mon 06:26:26 PM 44.5575 -106.7144 281° West 326 375 25,100 1,122 Climbing Salt Lake Center
Mon 06:27:27 PM 44.5772 -106.8650 280° West 339 390 26,400 1,073 Climbing Salt Lake Center
Mon 06:28:29 PM 44.5947 -106.9961 281° West 348 400 27,300 878 Climbing Salt Lake Center
Mon 06:29:30 PM 44.6114 -107.1342 280° West 361 415 28,200 1,024 Climbing Salt Lake Center
Mon 06:30:32 PM 44.6322 -107.2950 280° West 367 422 29,400 1,122 Climbing Salt Lake Center
Mon 06:31:33 PM 44.6489 -107.4319 280° West 370 426 30,500 1,220 Climbing Salt Lake Center
Mon 06:32:35 PM 44.6675 -107.5869 280° West 363 418 31,900 1,152 Climbing Salt Lake Center
Mon 06:33:38 PM 44.6844 -107.7189 280° West 360 414 32,900 976 Climbing Salt Lake Center
Mon 06:34:38 PM 44.6997 -107.8522 279° West 362 417 33,900 1,082 Climbing Salt Lake Center
Mon 06:35:40 PM 44.7189 -108.0050 280° West 357 411 35,100 1,073 Climbing Salt Lake Center
Mon 06:36:41 PM 44.7333 -108.1347 279° West 353 406 36,100 878 Climbing Salt Lake Center
Mon 06:37:43 PM 44.7511 -108.2831 280° West 348 400 36,900 634 Climbing Salt Lake Center
Mon 06:38:44 PM 44.7644 -108.4100 278° West 346 398 37,400 537 Climbing Salt Lake Center
Mon 06:39:46 PM 44.7800 -108.5381 280° West 346 398 38,000 290 Climbing Salt Lake Center
Mon 06:40:48 PM 44.7950 -108.6889 278° West 348 400 38,000  Level Salt Lake Center
Mon 06:41:49 PM 44.8086 -108.8250 278° West 362 417 38,000  Level Salt Lake Center
Mon 06:42:51 PM 44.8292 -108.9889 280° West 377 434 38,000  Level Salt Lake Center
Mon 06:43:52 PM 44.8450 -109.1339 279° West 388 447 38,000  Level Salt Lake Center
Mon 06:44:54 PM 44.8636 -109.3078 279° West 399 459 38,000  Level Salt Lake Center
Mon 06:45:55 PM 44.8803 -109.4581 279° West 404 465 38,000  Level Salt Lake Center
Mon 06:46:57 PM 44.8969 -109.6094 279° West 408 470 38,000  Level Salt Lake Center
Mon 06:47:58 PM 44.9158 -109.7861 279° West 408 470 38,000 244 Level Salt Lake Center
Mon 06:49:00 PM 44.9306 -109.9375 278° West 409 471 38,500 537 Climbing Salt Lake Center
Mon 06:50:01 PM 44.9483 -110.1092 278° West 400 460 39,100 585 Climbing Salt Lake Center
Mon 06:51:03 PM 44.9628 -110.2522 278° West 390 449 39,700 435 Climbing Salt Lake Center
Mon 06:52:05 PM 44.9781 -110.4181 277° West 384 442 40,000 146 Climbing Salt Lake Center
Mon 06:53:06 PM 44.9925 -110.5619 278° West 386 444 40,000  Level Salt Lake Center
Mon 06:54:08 PM 45.0058 -110.7069 277° West 389 448 40,000  Level Salt Lake Center
Mon 06:55:09 PM 45.0225 -110.8792 278° West 396 456 40,000  Level Salt Lake Center
Mon 06:56:11 PM 45.0367 -111.0283 278° West 402 463 40,000  Level Salt Lake Center
Mon 06:57:13 PM 45.0536 -111.2056 278° West 407 468 40,000  Level Salt Lake Center
Mon 06:58:14 PM 45.0664 -111.3547 277° West 404 465 40,000  Level Salt Lake Center
Mon 06:59:16 PM 45.0814 -111.5317 277° West 408 470 40,000  Level Salt Lake Center
Mon 07:00:18 PM 45.0950 -111.6833 277° West 409 471 40,000  Level Salt Lake Center
Mon 07:01:20 PM 45.1089 -111.8475 277° West 405 466 40,000  Level Salt Lake Center
Mon 07:02:22 PM 45.1219 -112.0064 277° West 405 466 40,000  Level Salt Lake Center
Mon 07:03:23 PM 45.1375 -112.1850 277° West 402 463 40,000  Level Salt Lake Center
Mon 07:04:25 PM 45.1486 -112.3342 276° West 400 460 40,000  Level Salt Lake Center
Mon 07:05:27 PM 45.1603 -112.4822 276° West 398 458 40,000  Level Salt Lake Center
Mon 07:06:28 PM 45.1744 -112.6519 277° West 392 451 40,000  Level Salt Lake Center
Mon 07:07:30 PM 45.1850 -112.7997 276° West 392 451 40,000  Level Salt Lake Center
Mon 07:08:31 PM 45.1978 -112.9736 276° West 397 457 40,000 195 Level Salt Lake Center
Mon 07:09:33 PM 45.2103 -113.1206 277° West 393 452 40,400 488 Climbing Salt Lake Center
Mon 07:10:34 PM 45.2217 -113.2878 276° West 383 441 41,000 293 Climbing Salt Lake Center
Mon 07:11:36 PM 45.2317 -113.4342 276° West 389 448 41,000  Level Salt Lake Center
Mon 07:12:38 PM 45.2414 -113.5803 275° West 392 451 41,000  Level Salt Lake Center
Mon 07:13:39 PM 45.2433 -113.7556 271° West 400 460 41,000  Level Salt Lake Center
Mon 07:14:41 PM 45.2333 -113.9078 265° West 405 466 41,000  Level Salt Lake Center
Mon 07:15:42 PM 45.2239 -114.0750 265° West 405 466 41,000  Level Salt Lake Center
Mon 07:16:44 PM 45.2150 -114.2525 266° West 404 465 41,000  Level Salt Lake Center
Mon 07:17:46 PM 45.2086 -114.4056 267° West 407 468 41,000  Level Salt Lake Center
Mon 07:18:47 PM 45.2006 -114.5581 266° West 406 467 41,000  Level Salt Lake Center
Mon 07:19:49 PM 45.2114 -114.7356 275° West 407 468 41,000  Level Salt Lake Center
Mon 07:20:51 PM 45.2231 -114.8867 276° West 405 466 41,000  Level Salt Lake Center
Mon 07:21:52 PM 45.2358 -115.0625 276° West 403 464 41,000  Level Salt Lake Center
Mon 07:22:54 PM 45.2461 -115.2117 276° West 400 460 41,000  Level Salt Lake Center
Mon 07:23:56 PM 45.2578 -115.3886 275° West 404 465 41,000  Level Salt Lake Center
Mon 07:24:57 PM 45.2686 -115.5408 276° West 405 466 41,000  Level Salt Lake Center
Mon 07:25:59 PM 45.2808 -115.7211 276° West 412 474 41,000  Level Salt Lake Center
Mon 07:27:01 PM 45.2911 -115.8750 275° West 413 475 41,000  Level Salt Lake Center
Mon 07:28:03 PM 45.3019 -116.0256 276° West 406 467 41,000  Level Salt Lake Center
Mon 07:29:04 PM 45.3147 -116.2047 276° West 410 472 41,000  Level Salt Lake Center
Mon 07:30:06 PM 45.3250 -116.3578 276° West 409 471 41,000  Level Salt Lake Center
Mon 07:31:08 PM 45.3358 -116.5383 275° West 411 473 41,000  Level Salt Lake Center
Mon 07:32:10 PM 45.3458 -116.6925 275° West 413 475 41,000  Level Salt Lake Center
Mon 07:33:31 PM 45.3597 -116.9258 275° West 412 474 41,000  Level Seattle Center
Mon 07:34:32 PM 45.3692 -117.0817 275° West 415 478 41,000  Level Seattle Center
Mon 07:35:33 PM 45.3794 -117.2631 275° West 414 476 41,000  Level Seattle Center
Mon 07:36:34 PM 45.3886 -117.4183 275° West 412 474 41,000  Level Seattle Center
Mon 07:37:35 PM 45.3978 -117.5758 275° West 404 465 41,000  Level Seattle Center
Mon 07:38:36 PM 45.4056 -117.7347 274° West 404 465 41,000  Level Seattle Center
Mon 07:39:37 PM 45.4133 -117.8911 274° West 400 460 41,000  Level Seattle Center
Mon 07:40:38 PM 45.4219 -118.0497 274° West 402 463 41,000  Level Seattle Center
Mon 07:41:39 PM 45.4306 -118.2075 275° West 402 463 41,000  Level Seattle Center
Mon 07:42:40 PM 45.4381 -118.3672 274° West 405 466 41,000  Level Seattle Center
Mon 07:43:41 PM 45.4450 -118.5250 274° West 403 464 41,000  Level Seattle Center
Mon 07:44:42 PM 45.4522 -118.6825 274° West 402 463 41,000  Level Seattle Center
Mon 07:45:43 PM 45.4600 -118.8394 274° West 399 459 41,000  Level Seattle Center
Mon 07:46:44 PM 45.4681 -119.0283 274° West 400 460 41,000  Level Seattle Center
Mon 07:47:45 PM 45.4747 -119.1853 274° West 401 461 41,000  Level Seattle Center
Mon 07:48:46 PM 45.4814 -119.3428 274° West 401 461 41,000  Level Seattle Center
Mon 07:49:47 PM 45.4867 -119.4986 273° West 400 460 41,000 -393 Level Seattle Center
Mon 07:50:48 PM 45.4931 -119.6564 273° West 400 460 40,200 -1,033 Descending Seattle Center
Mon 07:51:49 PM 45.4978 -119.8131 273° West 400 460 38,900 -1,377 Descending Seattle Center
Mon 07:52:50 PM 45.5042 -119.9706 273° West 401 461 37,400 -1,525 Descending Seattle Center
Mon 07:53:51 PM 45.5086 -120.1283 272° West 402 463 35,800 -1,672 Descending Seattle Center
Mon 07:54:52 PM 45.5133 -120.3150 272° West 398 458 34,000 -1,820 Descending Seattle Center
Mon 07:55:53 PM 45.5161 -120.4725 271° West 399 459 32,100 -1,854 Descending Seattle Center
Mon 07:56:55 PM 45.5175 -120.6331 271° West 406 467 30,200 -2,000 Descending Seattle Center
Mon 07:57:56 PM 45.5197 -120.8000 271° West 422 486 28,000 -2,213 Descending Seattle Center
Mon 07:58:57 PM 45.5217 -120.9717 271° West 436 502 25,700 -2,262 Descending Seattle Center
Mon 07:59:58 PM 45.5233 -121.1447 271° West 438 504 23,400 -2,213 Descending Seattle Center
Mon 08:00:59 PM 45.5253 -121.3081 271° West 419 482 21,200 -2,213 Descending Seattle Center
Mon 08:02:00 PM 45.5269 -121.4686 271° West 407 468 18,900 -2,213 Descending Seattle Center
Mon 08:03:01 PM 45.5275 -121.6261 270° West 399 459 16,700 -2,262 Descending Seattle Center
Mon 08:04:02 PM 45.5297 -121.7786 271° West 389 448 14,300 -2,459 Descending Seattle Center
Mon 08:05:03 PM 45.5336 -121.9444 272° West 372 428 11,700 -2,262 Descending Seattle Center
Mon 08:06:04 PM 45.5364 -122.0672 272° West 318 366 9,700 -2,066 Descending Seattle Center
Mon 08:07:05 PM 45.5350 -122.1783 269° West 287 330 7,500 -2,262 Descending Seattle Center
Mon 08:08:06 PM 45.5208 -122.2817 259° West 277 319 5,100 -2,311 Descending Seattle Center
Mon 08:09:07 PM 45.5011 -122.3728 253° West 268 308 2,800 -1,721 Descending Seattle Center
Mon 08:10:08 PM 45.5375 -122.4453 306° West 231 266 1,600 -934 Descending Seattle Center
Mon 08:11:09 PM 45.5633 -122.5117 299° West 214 246 900 -639 Descending Seattle Center
Mon 08:12:10 PM 45.5869 -122.5681 301° West 191 220 300 -590 Descending Seattle Center

Login

Don't have an account? Register now (free) for customized features, flight alerts, and more!